createdAt,value
2017-01-03T00:00:51.011Z,0.8
2017-01-03T00:01:50.981Z,0.81
2017-01-03T00:02:51.181Z,0.9
2017-01-03T00:03:50.947Z,0.81
2017-01-03T00:04:50.951Z,0.78
2017-01-03T00:05:51.118Z,0.89
2017-01-03T00:06:51.021Z,0.77
2017-01-03T00:07:51.161Z,0.86
2017-01-03T00:08:51.029Z,0.88
2017-01-03T00:09:51.144Z,0.78
2017-01-03T00:10:51.162Z,0.77
2017-01-03T00:11:51.091Z,0.75
2017-01-03T00:12:51.100Z,0.86
2017-01-03T00:13:51.030Z,0.9
2017-01-03T00:14:51.146Z,0.92
2017-01-03T00:15:51.034Z,0.74
2017-01-03T00:16:51.069Z,0.77
2017-01-03T00:17:50.970Z,0.82
2017-01-03T00:18:51.099Z,0.81
2017-01-03T00:19:51.048Z,0.78
2017-01-03T00:20:51.718Z,0.84
2017-01-03T00:21:51.327Z,0.77
2017-01-03T00:22:51.157Z,0.86
2017-01-03T00:23:51.284Z,0.78
2017-01-03T00:24:51.030Z,0.75
2017-01-03T00:25:51.174Z,0.74
2017-01-03T00:26:51.046Z,0.78
2017-01-03T00:27:51.156Z,0.77
2017-01-03T00:28:51.151Z,0.88
2017-01-03T00:29:51.231Z,0.84
2017-01-03T00:30:51.178Z,0.84
2017-01-03T00:31:51.087Z,0.81
2017-01-03T00:32:51.146Z,0.78
2017-01-03T00:33:51.120Z,0.8
2017-01-03T00:34:51.120Z,0.86
2017-01-03T00:35:51.079Z,0.78
2017-01-03T00:36:50.980Z,0.75
2017-01-03T00:37:51.148Z,0.78
2017-01-03T00:38:51.001Z,0.77
2017-01-03T00:39:51.046Z,0.74
2017-01-03T00:40:51.108Z,0.75
2017-01-03T00:41:51.098Z,0.81
2017-01-03T00:42:51.058Z,0.89
2017-01-03T00:43:51.145Z,0.82
2017-01-03T00:44:51.065Z,0.9
2017-01-03T00:45:51.132Z,0.84
2017-01-03T00:46:51.011Z,0.93
2017-01-03T00:47:50.998Z,0.89
2017-01-03T00:48:51.054Z,0.82
2017-01-03T00:49:51.077Z,0.88
2017-01-03T00:50:51.149Z,0.86
2017-01-03T00:51:50.997Z,0.9
2017-01-03T00:52:51.042Z,0.86
2017-01-03T00:53:51.157Z,0.88
2017-01-03T00:54:50.967Z,0.89
2017-01-03T00:55:51.154Z,0.84
2017-01-03T00:56:51.087Z,0.81
2017-01-03T00:57:51.145Z,0.86
2017-01-03T00:58:51.035Z,0.88
2017-01-03T00:59:51.108Z,0.93
2017-01-03T01:00:51.056Z,0.88
2017-01-03T01:01:51.137Z,0.84
2017-01-03T01:02:51.187Z,0.92
2017-01-03T01:03:51.937Z,0.96
2017-01-03T01:04:51.045Z,0.92
2017-01-03T01:05:51.006Z,0.99
2017-01-03T01:06:51.153Z,0.82
2017-01-03T01:07:51.102Z,0.95
2017-01-03T01:08:51.176Z,1
2017-01-03T01:09:51.157Z,0.98
2017-01-03T01:10:51.046Z,0.95
2017-01-03T01:11:51.127Z,0.98
2017-01-03T01:12:51.107Z,0.96
2017-01-03T01:13:51.166Z,0.98
2017-01-03T01:14:51.178Z,0.98
2017-01-03T01:15:51.372Z,0.98
2017-01-03T01:16:51.073Z,0.92
2017-01-03T01:17:51.080Z,1.02
2017-01-03T01:18:51.094Z,0.93
2017-01-03T01:19:51.046Z,1
2017-01-03T01:20:51.028Z,0.93
2017-01-03T01:21:51.035Z,0.9
2017-01-03T01:22:51.752Z,0.99
2017-01-03T01:23:51.830Z,0.95
2017-01-03T01:24:51.084Z,0.98
2017-01-03T01:25:51.418Z,1.04
2017-01-03T01:26:51.054Z,0.95
2017-01-03T01:27:51.586Z,0.92
2017-01-03T01:28:51.407Z,0.96
2017-01-03T01:29:51.097Z,0.98
2017-01-03T01:30:51.136Z,0.98
2017-01-03T01:31:52.756Z,1
2017-01-03T01:32:51.093Z,1.04
2017-01-03T01:33:51.063Z,0.93
2017-01-03T01:34:51.125Z,0.89
2017-01-03T01:35:51.198Z,1
2017-01-03T01:36:51.089Z,1
2017-01-03T01:37:51.331Z,0.96
2017-01-03T01:38:51.113Z,1.02
2017-01-03T01:39:51.064Z,0.96
2017-01-03T01:40:51.073Z,0.99
2017-01-03T01:41:51.185Z,0.98
2017-01-03T01:42:51.092Z,1
2017-01-03T01:43:51.373Z,0.99
2017-01-03T01:44:51.188Z,1
2017-01-03T01:45:51.190Z,1
2017-01-03T01:46:51.143Z,1.04
2017-01-03T01:47:51.183Z,1.02
2017-01-03T01:48:51.188Z,1.1
2017-01-03T01:49:51.160Z,0.93
2017-01-03T01:50:51.082Z,0.98
2017-01-03T01:51:51.344Z,0.96
2017-01-03T01:52:51.169Z,0.92
2017-01-03T01:53:51.106Z,1.13
2017-01-03T01:54:51.739Z,1.02
2017-01-03T01:55:51.093Z,0.95
2017-01-03T01:56:51.078Z,0.89
2017-01-03T01:57:51.065Z,0.95
2017-01-03T01:58:51.130Z,0.95
2017-01-03T01:59:51.166Z,0.98
2017-01-03T02:00:51.135Z,0.98
2017-01-03T02:01:51.270Z,0.95
2017-01-03T02:02:51.236Z,0.99
2017-01-03T02:03:51.121Z,1.02
2017-01-03T02:04:51.190Z,0.95
2017-01-03T02:05:51.091Z,1.02
2017-01-03T02:06:51.120Z,0.98
2017-01-03T02:07:51.277Z,1
2017-01-03T02:08:51.072Z,0.89
2017-01-03T02:09:51.170Z,0.93
2017-01-03T02:10:51.209Z,0.98
2017-01-03T02:11:51.262Z,0.92
2017-01-03T02:12:51.195Z,0.92
2017-01-03T02:13:51.117Z,0.82
2017-01-03T02:14:51.160Z,0.86
2017-01-03T02:15:51.276Z,0.88
2017-01-03T02:16:51.120Z,0.84
2017-01-03T02:17:51.131Z,0.92
2017-01-03T02:18:51.113Z,0.81
2017-01-03T02:19:51.171Z,0.86
2017-01-03T02:20:51.249Z,0.84
2017-01-03T02:21:51.131Z,0.89
2017-01-03T02:22:51.180Z,0.84
2017-01-03T02:23:51.160Z,0.86
2017-01-03T02:24:51.208Z,0.92
2017-01-03T02:25:51.327Z,0.81
2017-01-03T02:26:51.202Z,0.89
2017-01-03T02:27:51.119Z,0.81
2017-01-03T02:28:51.150Z,0.9
2017-01-03T02:29:51.138Z,0.89
2017-01-03T02:30:51.120Z,0.88
2017-01-03T02:31:51.156Z,0.93
2017-01-03T02:32:51.230Z,0.88
2017-01-03T02:33:51.170Z,0.78
2017-01-03T02:34:51.249Z,0.88
2017-01-03T02:35:51.209Z,0.84
2017-01-03T02:36:51.216Z,0.92
2017-01-03T02:37:51.219Z,0.88
2017-01-03T02:38:51.208Z,0.88
2017-01-03T02:39:51.329Z,0.95
2017-01-03T02:40:51.169Z,0.93
2017-01-03T02:41:54.248Z,0.89
2017-01-03T02:42:51.197Z,0.86
2017-01-03T02:43:51.158Z,0.9
2017-01-03T02:44:51.186Z,0.81
2017-01-03T02:45:51.149Z,0.88
2017-01-03T02:46:51.186Z,0.86
2017-01-03T02:47:51.207Z,0.95
2017-01-03T02:48:51.217Z,0.93
2017-01-03T02:49:51.788Z,0.86
2017-01-03T02:50:51.169Z,0.9
2017-01-03T02:51:51.248Z,0.93
2017-01-03T02:52:51.223Z,0.92
2017-01-03T02:53:51.201Z,0.92
2017-01-03T02:54:51.224Z,0.93
2017-01-03T02:55:51.296Z,0.89
2017-01-03T02:56:51.180Z,0.9
2017-01-03T02:57:51.128Z,0.92
2017-01-03T02:58:51.139Z,0.98
2017-01-03T02:59:51.319Z,0.81
2017-01-03T03:00:51.147Z,0.93
2017-01-03T03:01:51.196Z,0.84
2017-01-03T03:02:53.206Z,0.98
2017-01-03T03:03:51.464Z,0.98
2017-01-03T03:04:51.174Z,0.92
2017-01-03T03:05:51.237Z,0.93
2017-01-03T03:06:51.200Z,0.95
2017-01-03T03:07:51.277Z,0.96
2017-01-03T03:08:51.278Z,0.93
2017-01-03T03:09:51.162Z,0.96
2017-01-03T03:10:51.231Z,0.99
2017-01-03T03:11:51.198Z,0.98
2017-01-03T03:12:51.149Z,0.96
2017-01-03T03:13:51.289Z,0.96
2017-01-03T03:14:51.196Z,1.04
2017-01-03T03:15:51.272Z,1.1
2017-01-03T03:16:51.178Z,1.07
2017-01-03T03:17:51.243Z,1
2017-01-03T03:18:51.320Z,1.11
2017-01-03T03:19:51.224Z,0.99
2017-01-03T03:20:51.178Z,1.02
2017-01-03T03:21:51.140Z,1.17
2017-01-03T03:22:51.207Z,1.16
2017-01-03T03:23:51.433Z,1.24
2017-01-03T03:24:51.166Z,1.08
2017-01-03T03:25:51.289Z,1.17
2017-01-03T03:26:51.160Z,1.18
2017-01-03T03:27:51.168Z,1.24
2017-01-03T03:28:51.330Z,1.24
2017-01-03T03:29:51.297Z,1.21
2017-01-03T03:30:51.275Z,1.26
2017-01-03T03:31:51.179Z,1.26
2017-01-03T03:32:51.313Z,1.24
2017-01-03T03:33:51.295Z,1.25
2017-01-03T03:34:51.266Z,1.26
2017-01-03T03:35:51.267Z,1.24
2017-01-03T03:36:51.308Z,1.26
2017-01-03T03:37:51.229Z,1.2
2017-01-03T03:38:51.280Z,1.24
2017-01-03T03:39:51.182Z,1.21
2017-01-03T03:40:51.209Z,1.24
2017-01-03T03:41:51.193Z,1.2
2017-01-03T03:42:51.187Z,1.26
2017-01-03T03:43:51.326Z,1.26
2017-01-03T03:44:51.200Z,1.24
2017-01-03T03:45:51.299Z,1.2
2017-01-03T03:46:51.316Z,1.29
2017-01-03T03:47:51.321Z,1.26
2017-01-03T03:48:51.275Z,1.24
2017-01-03T03:49:51.310Z,1.2
2017-01-03T03:50:51.335Z,1.17
2017-01-03T03:51:53.528Z,1.2
2017-01-03T03:52:51.276Z,1.24
2017-01-03T03:53:51.285Z,1.21
2017-01-03T03:54:51.232Z,1.2
2017-01-03T03:55:51.212Z,1.21
2017-01-03T03:56:51.316Z,1.17
2017-01-03T03:57:51.385Z,1.17
2017-01-03T03:58:51.316Z,1.2
2017-01-03T03:59:51.197Z,1.21
2017-01-03T04:00:51.233Z,1.25
2017-01-03T04:01:51.349Z,1.26
2017-01-03T04:02:51.264Z,1.25
2017-01-03T04:03:51.553Z,1.25
2017-01-03T04:04:51.205Z,1.26
2017-01-03T04:05:51.264Z,1.25
2017-01-03T04:06:51.332Z,1.24
2017-01-03T04:07:51.327Z,1.24
2017-01-03T04:08:51.300Z,1.26
2017-01-03T04:09:51.324Z,1.26
2017-01-03T04:10:51.285Z,1.2
2017-01-03T04:11:51.214Z,1.24
2017-01-03T04:12:51.282Z,1.28
2017-01-03T04:13:51.418Z,1.24
2017-01-03T04:14:51.246Z,1.28
2017-01-03T04:15:51.502Z,1.39
2017-01-03T04:16:51.301Z,1.35
2017-01-03T04:17:51.315Z,1.42
2017-01-03T04:18:51.254Z,1.42
2017-01-03T04:19:51.314Z,1.46
2017-01-03T04:20:51.293Z,1.36
2017-01-03T04:21:51.211Z,1.36
2017-01-03T04:22:51.244Z,1.38
2017-01-03T04:23:51.299Z,1.35
2017-01-03T04:24:51.333Z,1.35
2017-01-03T04:25:51.284Z,1.39
2017-01-03T04:26:51.253Z,1.42
2017-01-03T04:27:51.312Z,1.42
2017-01-03T04:28:51.329Z,1.36
2017-01-03T04:29:51.252Z,1.46
2017-01-03T04:30:51.352Z,1.47
2017-01-03T04:31:51.251Z,1.38
2017-01-03T04:32:51.222Z,1.42
2017-01-03T04:33:51.413Z,1.35
2017-01-03T04:34:51.372Z,1.39
2017-01-03T04:35:51.261Z,1.43
2017-01-03T04:36:51.333Z,1.38
2017-01-03T04:37:51.534Z,1.49
2017-01-03T04:38:51.303Z,1.44
2017-01-03T04:39:51.542Z,1.49
2017-01-03T04:40:51.262Z,1.39
2017-01-03T04:41:51.399Z,1.35
2017-01-03T04:42:51.302Z,1.47
2017-01-03T04:43:51.332Z,1.57
2017-01-03T04:44:51.331Z,1.54
2017-01-03T04:45:51.274Z,1.53
2017-01-03T04:46:51.272Z,1.49
2017-01-03T04:47:51.271Z,1.54
2017-01-03T04:48:51.292Z,1.49
2017-01-03T04:49:51.345Z,1.54
2017-01-03T04:50:51.331Z,1.5
2017-01-03T04:51:51.354Z,1.47
2017-01-03T04:52:51.395Z,1.46
2017-01-03T04:53:51.436Z,1.46
2017-01-03T04:54:51.324Z,1.46
2017-01-03T04:55:51.251Z,1.5
2017-01-03T04:56:51.372Z,1.6
2017-01-03T04:57:51.331Z,1.53
2017-01-03T04:58:51.341Z,1.67
2017-01-03T04:59:51.318Z,1.61
2017-01-03T05:00:51.347Z,1.68
2017-01-03T05:01:51.320Z,1.68
2017-01-03T05:02:51.331Z,1.72
2017-01-03T05:03:51.409Z,1.68
2017-01-03T05:04:51.290Z,1.67
2017-01-03T05:05:51.551Z,1.72
2017-01-03T05:06:51.379Z,1.71
2017-01-03T05:07:51.284Z,1.68
2017-01-03T05:08:51.427Z,1.65
2017-01-03T05:09:51.260Z,1.77
2017-01-03T05:10:51.301Z,1.77
2017-01-03T05:11:51.420Z,1.77
2017-01-03T05:12:51.338Z,1.81
2017-01-03T05:13:51.566Z,1.83
2017-01-03T05:14:51.387Z,1.88
2017-01-03T05:15:51.329Z,1.88
2017-01-03T05:16:51.349Z,1.88
2017-01-03T05:17:51.279Z,1.86
2017-01-03T05:18:51.338Z,1.86
2017-01-03T05:19:51.319Z,1.9
2017-01-03T05:20:51.338Z,1.98
2017-01-03T05:21:51.338Z,1.95
2017-01-03T05:22:51.375Z,2
2017-01-03T05:23:51.343Z,2
2017-01-03T05:24:51.426Z,1.98
2017-01-03T05:25:51.378Z,1.88
2017-01-03T05:26:51.329Z,2.01
2017-01-03T05:27:51.321Z,1.92
2017-01-03T05:28:51.412Z,1.9
2017-01-03T05:29:51.380Z,1.86
2017-01-03T05:30:51.326Z,1.92
2017-01-03T05:31:51.430Z,2
2017-01-03T05:32:51.329Z,2
2017-01-03T05:33:51.585Z,2.04
2017-01-03T05:34:51.395Z,2.05
2017-01-03T05:35:51.553Z,2.09
2017-01-03T05:36:51.385Z,2.05
2017-01-03T05:37:51.489Z,2.07
2017-01-03T05:38:51.524Z,2.12
2017-01-03T05:39:51.394Z,2.08
2017-01-03T05:40:51.424Z,2.02
2017-01-03T05:41:51.552Z,2.08
2017-01-03T05:42:51.362Z,2.11
2017-01-03T05:43:51.604Z,2.18
2017-01-03T05:44:51.324Z,2.18
2017-01-03T05:45:51.356Z,2.15
2017-01-03T05:46:51.343Z,2.18
2017-01-03T05:47:51.454Z,2.22
2017-01-03T05:48:51.433Z,2.15
2017-01-03T05:49:51.424Z,2.2
2017-01-03T05:50:51.302Z,2.25
2017-01-03T05:51:51.349Z,2.14
2017-01-03T05:52:51.352Z,2.19
2017-01-03T05:53:51.609Z,2.22
2017-01-03T05:54:51.421Z,2.25
2017-01-03T05:55:51.432Z,2.26
2017-01-03T05:56:51.341Z,2.3
2017-01-03T05:57:51.452Z,2.33
2017-01-03T05:58:51.433Z,2.33
2017-01-03T05:59:51.621Z,2.32
2017-01-03T06:00:51.344Z,2.33
2017-01-03T06:01:51.384Z,2.32
2017-01-03T06:02:51.401Z,2.37
2017-01-03T06:03:51.570Z,2.27
2017-01-03T06:04:51.453Z,2.38
2017-01-03T06:05:51.331Z,2.37
2017-01-03T06:06:51.382Z,2.38
2017-01-03T06:07:51.613Z,2.43
2017-01-03T06:08:51.421Z,2.44
2017-01-03T06:09:51.381Z,2.37
2017-01-03T06:10:51.402Z,2.32
2017-01-03T06:11:51.412Z,2.44
2017-01-03T06:12:52.020Z,2.45
2017-01-03T06:13:51.401Z,2.47
2017-01-03T06:14:51.371Z,2.43
2017-01-03T06:15:51.617Z,2.47
2017-01-03T06:16:51.369Z,2.44
2017-01-03T06:17:51.548Z,2.4
2017-01-03T06:18:51.455Z,2.45
2017-01-03T06:19:51.392Z,2.5
2017-01-03T06:20:51.441Z,2.51
2017-01-03T06:21:51.415Z,2.41
2017-01-03T06:22:51.430Z,2.5
2017-01-03T06:23:51.385Z,2.5
2017-01-03T06:24:51.384Z,2.53
2017-01-03T06:25:51.388Z,2.47
2017-01-03T06:26:51.397Z,2.45
2017-01-03T06:27:51.600Z,2.48
2017-01-03T06:28:51.411Z,2.56
2017-01-03T06:33:20.828Z,2.62
2017-01-03T06:34:20.959Z,2.62
2017-01-03T06:35:20.801Z,2.63
2017-01-03T06:36:21.520Z,2.58
2017-01-03T06:37:20.853Z,2.58
2017-01-03T06:38:20.868Z,2.59
2017-01-03T06:39:21.101Z,2.59
2017-01-03T06:40:20.896Z,2.56
2017-01-03T06:41:20.880Z,2.58
2017-01-03T06:42:20.867Z,2.69
2017-01-03T06:43:20.870Z,2.56
2017-01-03T06:44:20.871Z,2.61
2017-01-03T06:45:20.906Z,2.53
2017-01-03T06:46:20.840Z,2.59
2017-01-03T06:47:20.803Z,2.55
2017-01-03T06:48:20.941Z,2.58
2017-01-03T06:49:21.037Z,2.59
2017-01-03T06:50:20.878Z,2.58
2017-01-03T06:51:20.794Z,2.63
2017-01-03T06:52:20.796Z,2.58
2017-01-03T06:53:22.958Z,2.53
2017-01-03T06:54:20.805Z,2.51
2017-01-03T06:55:20.787Z,2.44
2017-01-03T06:56:20.807Z,2.43
2017-01-03T06:57:20.927Z,2.43
2017-01-03T06:58:21.063Z,2.41
2017-01-03T06:59:20.815Z,2.41
2017-01-03T07:00:21.035Z,2.43
2017-01-03T07:01:20.995Z,2.36
2017-01-03T07:02:20.815Z,2.45
2017-01-03T07:03:20.749Z,2.4
2017-01-03T07:04:20.835Z,2.5
2017-01-03T07:05:20.917Z,2.41
2017-01-03T07:06:20.918Z,2.47
2017-01-03T07:07:20.790Z,2.45
2017-01-03T07:08:20.988Z,2.48
2017-01-03T07:09:20.881Z,2.4
2017-01-03T07:10:20.857Z,2.36
2017-01-03T07:11:20.985Z,2.36
2017-01-03T07:12:20.848Z,2.3
2017-01-03T07:13:20.987Z,2.45
2017-01-03T07:14:20.978Z,2.38
2017-01-03T07:15:20.796Z,2.4
2017-01-03T07:16:20.890Z,2.43
2017-01-03T07:17:20.841Z,2.48
2017-01-03T07:18:20.981Z,2.47
2017-01-03T07:19:20.960Z,2.44
2017-01-03T07:20:20.847Z,2.37
2017-01-03T07:21:20.935Z,2.43
2017-01-03T07:22:20.884Z,2.5
2017-01-03T07:23:20.927Z,2.43
2017-01-03T07:24:20.794Z,2.41
2017-01-03T07:25:20.817Z,2.37
2017-01-03T07:26:20.967Z,2.36
2017-01-03T07:27:20.824Z,2.32
2017-01-03T07:28:20.985Z,2.36
2017-01-03T07:29:20.986Z,2.3
2017-01-03T07:30:20.835Z,2.37
2017-01-03T07:31:20.944Z,2.27
2017-01-03T07:32:20.984Z,2.27
2017-01-03T07:33:20.853Z,2.25
2017-01-03T07:34:20.934Z,2.2
2017-01-03T07:35:20.952Z,2.22
2017-01-03T07:36:20.892Z,2.19
2017-01-03T07:37:20.892Z,2.15
2017-01-03T07:38:20.875Z,2.2
2017-01-03T07:39:20.897Z,2.2
2017-01-03T07:40:20.885Z,2.18
2017-01-03T07:41:20.998Z,2.19
2017-01-03T07:42:20.918Z,2.2
2017-01-03T07:43:20.961Z,2.11
2017-01-03T07:44:21.024Z,2.12
2017-01-03T07:45:20.905Z,2.14
2017-01-03T07:46:20.983Z,2.08
2017-01-03T07:47:20.906Z,2.07
2017-01-03T07:48:21.034Z,2.12
2017-01-03T07:49:21.002Z,2.02
2017-01-03T07:50:21.034Z,2.07
2017-01-03T07:51:20.893Z,2.04
2017-01-03T07:52:20.919Z,2.04
2017-01-03T07:53:20.883Z,2.07
2017-01-03T07:54:21.021Z,2.02
2017-01-03T07:55:20.944Z,2.07
2017-01-03T07:56:20.963Z,2.08
2017-01-03T07:57:21.024Z,2.02
2017-01-03T07:58:20.993Z,2.07
2017-01-03T07:59:21.030Z,2.04
2017-01-03T08:00:21.050Z,2.07
2017-01-03T08:01:21.012Z,2.07
2017-01-03T08:02:20.983Z,2.09
2017-01-03T08:03:21.028Z,2.07
2017-01-03T08:04:21.063Z,2.08
2017-01-03T08:05:21.015Z,2.05
2017-01-03T08:06:21.708Z,2.11
2017-01-03T08:07:21.026Z,2.09
2017-01-03T08:08:20.873Z,2.12
2017-01-03T08:09:20.923Z,2.07
2017-01-03T08:10:21.034Z,2.09
2017-01-03T08:11:21.032Z,2.18
2017-01-03T08:12:20.923Z,2.11
2017-01-03T08:13:21.086Z,2.15
2017-01-03T08:14:20.980Z,2.15
2017-01-03T08:15:21.741Z,2.19
2017-01-03T08:16:20.982Z,2.2
2017-01-03T08:17:21.111Z,2.2
2017-01-03T08:18:21.024Z,2.23
2017-01-03T08:19:21.051Z,2.19
2017-01-03T08:20:20.952Z,2.18
2017-01-03T08:21:21.020Z,2.14
2017-01-03T08:22:21.025Z,2.15
2017-01-03T08:23:20.984Z,2.07
2017-01-03T08:24:20.919Z,2.08
2017-01-03T08:25:20.953Z,2.12
2017-01-03T08:26:21.039Z,2.18
2017-01-03T08:27:20.981Z,2.08
2017-01-03T08:28:20.973Z,2.07
2017-01-03T08:29:21.093Z,2.09
2017-01-03T08:30:20.891Z,2.12
2017-01-03T08:31:20.991Z,2.07
2017-01-03T08:32:20.936Z,2.04
2017-01-03T08:33:20.941Z,2.07
2017-01-03T08:34:21.250Z,2.08
2017-01-03T08:35:21.065Z,2.15
2017-01-03T08:36:21.181Z,2.14
2017-01-03T08:37:21.018Z,2.19
2017-01-03T08:38:20.960Z,2.14
2017-01-03T08:39:20.995Z,2.2
2017-01-03T08:40:20.982Z,2.14
2017-01-03T08:41:20.982Z,2.27
2017-01-03T08:42:21.032Z,2.3
2017-01-03T08:43:21.072Z,2.44
2017-01-03T08:44:21.048Z,2.56
2017-01-03T08:45:21.063Z,2.68
2017-01-03T08:46:21.050Z,2.77
2017-01-03T08:47:21.145Z,2.8
2017-01-03T08:48:22.199Z,2.92
2017-01-03T08:49:21.059Z,2.98
2017-01-03T08:50:21.063Z,2.97
2017-01-03T08:51:20.979Z,3.01
2017-01-03T08:52:21.007Z,3.04
2017-01-03T08:53:21.086Z,3.05
2017-01-03T08:54:21.006Z,3.08
2017-01-03T08:55:21.092Z,3.1
2017-01-03T08:56:21.046Z,3.12
2017-01-03T08:57:21.107Z,3.08
2017-01-03T08:58:20.970Z,3.05
2017-01-03T08:59:21.036Z,3.1
2017-01-03T09:00:20.997Z,3.12
2017-01-03T09:01:21.068Z,3.05
2017-01-03T09:02:20.997Z,3.1
2017-01-03T09:03:21.147Z,3.08
2017-01-03T09:04:21.128Z,3.05
2017-01-03T09:05:21.005Z,3.04
2017-01-03T09:06:20.966Z,3.05
2017-01-03T09:07:20.936Z,3.07
2017-01-03T09:08:20.956Z,3.01
2017-01-03T09:09:21.056Z,3.15
2017-01-03T09:10:21.075Z,3.1
2017-01-03T09:11:21.111Z,3.08
2017-01-03T09:12:21.094Z,3.17
2017-01-03T09:13:21.077Z,3.08
2017-01-03T09:14:21.154Z,3.05
2017-01-03T09:15:21.110Z,3.05
2017-01-03T09:16:21.124Z,2.99
2017-01-03T09:17:21.023Z,2.97
2017-01-03T09:18:22.636Z,2.99
2017-01-03T09:19:21.070Z,3.04
2017-01-03T09:20:21.042Z,2.99
2017-01-03T09:21:20.976Z,3.01
2017-01-03T09:22:21.032Z,3.04
2017-01-03T09:23:21.060Z,3.12
2017-01-03T09:24:21.094Z,2.95
2017-01-03T09:25:21.172Z,3.02
2017-01-03T09:26:21.024Z,3.1
2017-01-03T09:27:21.099Z,3.15
2017-01-03T09:28:20.991Z,3.22
2017-01-03T09:29:21.023Z,3.1
2017-01-03T09:30:20.989Z,3.25
2017-01-03T09:31:20.982Z,3.19
2017-01-03T09:32:22.855Z,3.26
2017-01-03T09:33:21.071Z,3.39
2017-01-03T09:34:21.290Z,3.28
2017-01-03T09:35:21.038Z,3.39
2017-01-03T09:36:21.203Z,3.22
2017-01-03T09:37:21.137Z,3.25
2017-01-03T09:38:21.071Z,3.25
2017-01-03T09:39:21.083Z,3.33
2017-01-03T09:40:21.148Z,3.33
2017-01-03T09:41:21.008Z,3.5
2017-01-03T09:42:21.046Z,3.53
2017-01-03T09:43:20.995Z,3.63
2017-01-03T09:44:21.046Z,3.52
2017-01-03T09:45:21.189Z,3.5
2017-01-03T09:46:21.105Z,3.56
2017-01-03T09:47:21.094Z,3.63
2017-01-03T09:48:21.074Z,3.57
2017-01-03T09:49:21.147Z,3.52
2017-01-03T09:50:21.045Z,3.62
2017-01-03T09:51:21.142Z,3.54
2017-01-03T09:52:21.117Z,3.54
2017-01-03T09:53:21.211Z,3.56
2017-01-03T09:54:21.129Z,3.67
2017-01-03T09:55:20.993Z,3.64
2017-01-03T09:56:21.245Z,3.54
2017-01-03T09:57:21.074Z,3.77
2017-01-03T09:58:21.112Z,3.62
2017-01-03T09:59:21.079Z,3.54
2017-01-03T10:00:21.122Z,3.52
2017-01-03T10:01:21.153Z,3.53
2017-01-03T10:02:21.082Z,3.46
2017-01-03T10:03:21.219Z,3.54
2017-01-03T10:04:21.127Z,3.49
2017-01-03T10:05:21.030Z,3.7
2017-01-03T10:06:21.188Z,3.62
2017-01-03T10:07:20.985Z,3.62
2017-01-03T10:08:21.149Z,3.72
2017-01-03T10:09:21.070Z,3.63
2017-01-03T10:10:21.093Z,3.8
2017-01-03T10:11:21.117Z,3.8
2017-01-03T10:12:21.119Z,3.95
2017-01-03T10:13:21.062Z,4.2
2017-01-03T10:14:21.107Z,4.26
2017-01-03T10:15:21.204Z,4.08
2017-01-03T10:16:21.277Z,4.07
2017-01-03T10:17:21.336Z,4.1
2017-01-03T10:18:21.342Z,4.42
2017-01-03T10:19:21.268Z,4.51
2017-01-03T10:20:21.111Z,4.59
2017-01-03T10:21:21.200Z,4.56
2017-01-03T10:22:21.111Z,4.39
2017-01-03T10:23:21.231Z,4.46
2017-01-03T10:24:21.179Z,4.51
2017-01-03T10:25:22.732Z,4.35
2017-01-03T10:26:21.172Z,4.26
2017-01-03T10:27:21.206Z,4.38
2017-01-03T10:28:21.163Z,4.38
2017-01-03T10:29:21.099Z,4.36
2017-01-03T10:30:21.158Z,4.26
2017-01-03T10:31:21.095Z,4.2
2017-01-03T10:32:21.613Z,4.16
2017-01-03T10:33:21.207Z,4.08
2017-01-03T10:34:21.097Z,3.93
2017-01-03T10:35:21.160Z,3.93
2017-01-03T10:36:21.250Z,3.96
2017-01-03T10:37:21.372Z,4.06
2017-01-03T10:38:21.300Z,4.07
2017-01-03T10:39:21.187Z,4.06
2017-01-03T10:40:21.087Z,4.08
2017-01-03T10:41:21.178Z,4.13
2017-01-03T10:42:21.135Z,4.1
2017-01-03T10:43:21.182Z,4.28
2017-01-03T10:44:21.097Z,4.38
2017-01-03T10:45:21.212Z,4.53
2017-01-03T10:46:21.170Z,4.62
2017-01-03T10:47:21.199Z,4.56
2017-01-03T10:48:21.110Z,4.51
2017-01-03T10:49:21.160Z,4.53
2017-01-03T10:50:21.168Z,4.62
2017-01-03T10:51:21.098Z,4.67
2017-01-03T10:52:21.219Z,4.64
2017-01-03T10:53:21.407Z,4.67
2017-01-03T10:54:21.163Z,4.56
2017-01-03T10:55:21.326Z,4.46
2017-01-03T10:56:21.704Z,4.8
2017-01-03T10:57:21.078Z,4.74
2017-01-03T10:58:21.147Z,5.01
2017-01-03T10:59:21.283Z,4.84
2017-01-03T11:00:21.205Z,5.04
2017-01-03T11:01:21.178Z,5.23
2017-01-03T11:02:21.227Z,5.19
2017-01-03T11:03:21.276Z,5.05
2017-01-03T11:04:21.211Z,5.15
2017-01-03T11:05:21.257Z,5.09
2017-01-03T11:06:21.250Z,5.09
2017-01-03T11:07:21.152Z,4.83
2017-01-03T11:08:23.280Z,4.72
2017-01-03T11:09:21.203Z,4.71
2017-01-03T11:10:21.126Z,4.62
2017-01-03T11:11:21.362Z,4.59
2017-01-03T11:12:21.257Z,4.67
2017-01-03T11:13:21.270Z,4.64
2017-01-03T11:14:21.259Z,4.75
2017-01-03T11:15:21.262Z,4.96
2017-01-03T11:16:21.243Z,4.96
2017-01-03T11:17:21.171Z,5.11
2017-01-03T11:18:21.281Z,5.14
2017-01-03T11:19:21.333Z,5.2
2017-01-03T11:20:21.239Z,5.32
2017-01-03T11:21:21.121Z,5.19
2017-01-03T11:22:21.161Z,5.22
2017-01-03T11:23:21.129Z,5.29
2017-01-03T11:24:21.152Z,5.15
2017-01-03T11:25:21.240Z,5.04
2017-01-03T11:26:21.186Z,4.88
2017-01-03T11:27:21.290Z,4.71
2017-01-03T11:28:21.195Z,4.65
2017-01-03T11:29:21.415Z,4.62
2017-01-03T11:30:21.221Z,4.42
2017-01-03T11:31:21.200Z,4.44
2017-01-03T11:32:21.219Z,4.51
2017-01-03T11:33:21.159Z,4.38
2017-01-03T11:34:21.271Z,4.26
2017-01-03T11:35:21.239Z,4.29
2017-01-03T11:36:21.138Z,4.44
2017-01-03T11:37:21.301Z,4.42
2017-01-03T11:38:21.174Z,4.46
2017-01-03T11:39:21.108Z,4.38
2017-01-03T11:40:21.254Z,4.21
2017-01-03T11:41:21.159Z,4.36
2017-01-03T11:42:21.421Z,4.2
2017-01-03T11:43:21.280Z,4.2
2017-01-03T11:45:40.715Z,3.96
2017-01-03T11:46:40.600Z,3.88
2017-01-03T11:47:40.505Z,3.89
2017-01-03T11:48:40.436Z,3.77
2017-01-03T11:49:40.392Z,3.8
2017-01-03T11:50:40.463Z,3.82
2017-01-03T11:51:40.430Z,3.95
2017-01-03T11:52:40.534Z,3.74
2017-01-03T11:53:40.462Z,3.71
2017-01-03T11:54:40.682Z,3.78
2017-01-03T11:55:40.452Z,3.89
2017-01-03T11:56:40.420Z,3.78
2017-01-03T11:57:40.496Z,3.81
2017-01-03T11:58:40.521Z,3.7
2017-01-03T11:59:42.712Z,3.59
2017-01-03T12:00:40.445Z,3.72
2017-01-03T12:01:40.562Z,3.72
2017-01-03T12:02:40.472Z,3.63
2017-01-03T12:03:40.548Z,3.74
2017-01-03T12:04:40.600Z,3.72
2017-01-03T12:05:40.504Z,3.59
2017-01-03T12:06:40.569Z,3.52
2017-01-03T12:07:40.542Z,3.53
2017-01-03T12:08:40.509Z,3.71
2017-01-03T12:09:40.587Z,3.54
2017-01-03T12:10:40.522Z,3.57
2017-01-03T12:11:40.548Z,3.52
2017-01-03T12:12:40.425Z,3.5
2017-01-03T12:13:40.552Z,3.78
2017-01-03T12:14:40.541Z,3.57
2017-01-03T12:15:40.574Z,3.49
2017-01-03T12:16:40.570Z,3.52
2017-01-03T12:21:09.949Z,3.41
2017-01-03T12:22:09.860Z,3.28
2017-01-03T12:23:09.947Z,3.44
2017-01-03T12:24:09.830Z,3.25
2017-01-03T12:25:09.924Z,3.25
2017-01-03T12:26:09.976Z,3.25
2017-01-03T12:27:09.910Z,3.2
2017-01-03T12:28:09.950Z,3.26
2017-01-03T12:29:09.860Z,3.33
2017-01-03T12:30:09.814Z,3.28
2017-01-03T12:31:10.039Z,3.44
2017-01-03T12:32:09.892Z,3.41
2017-01-03T12:33:09.990Z,3.41
2017-01-03T12:34:09.919Z,3.39
2017-01-03T12:35:09.966Z,3.42
2017-01-03T12:36:09.910Z,3.34
2017-01-03T12:37:09.796Z,3.41
2017-01-03T12:38:09.934Z,3.46
2017-01-03T12:39:09.933Z,3.42
2017-01-03T12:40:09.841Z,3.45
2017-01-03T12:41:09.975Z,3.31
2017-01-03T12:42:09.825Z,3.41
2017-01-03T12:43:10.055Z,3.45
2017-01-03T12:44:09.956Z,3.45
2017-01-03T12:45:09.864Z,3.53
2017-01-03T12:46:09.837Z,3.44
2017-01-03T12:47:10.024Z,3.5
2017-01-03T12:48:09.847Z,3.35
2017-01-03T12:49:09.973Z,3.41
2017-01-03T12:50:09.878Z,3.5
2017-01-03T12:51:09.940Z,3.5
2017-01-03T12:52:09.931Z,3.68
2017-01-03T12:53:10.850Z,3.56
2017-01-03T12:54:09.991Z,3.49
2017-01-03T12:55:09.895Z,3.5
2017-01-03T12:56:09.849Z,3.5
2017-01-03T12:57:09.821Z,3.56
2017-01-03T12:58:09.892Z,3.6
2017-01-03T12:59:09.990Z,3.68
2017-01-03T13:00:09.836Z,3.67
2017-01-03T13:01:09.904Z,3.78
2017-01-03T13:02:10.042Z,3.75
2017-01-03T13:03:09.921Z,3.92
2017-01-03T13:04:09.890Z,3.9
2017-01-03T13:05:10.031Z,3.81
2017-01-03T13:06:09.926Z,3.71
2017-01-03T13:07:09.959Z,3.68
2017-01-03T13:08:09.952Z,3.68
2017-01-03T13:09:10.099Z,3.59
2017-01-03T13:10:09.887Z,3.63
2017-01-03T13:11:10.095Z,3.64
2017-01-03T13:12:09.915Z,3.59
2017-01-03T13:13:09.949Z,3.8
2017-01-03T13:14:09.928Z,3.89
2017-01-03T13:15:11.047Z,4.25
2017-01-03T13:16:10.007Z,4.24
2017-01-03T13:17:10.023Z,4.11
2017-01-03T13:18:10.000Z,4.1
2017-01-03T13:19:10.048Z,4.11
2017-01-03T13:20:09.921Z,4.29
2017-01-03T13:21:09.922Z,4.57
2017-01-03T13:22:09.892Z,4.49
2017-01-03T13:23:10.159Z,4.57
2017-01-03T13:24:09.883Z,4.38
2017-01-03T13:25:09.927Z,4.46
2017-01-03T13:26:09.961Z,4.47
2017-01-03T13:27:10.028Z,4.21
2017-01-03T13:28:09.990Z,4.13
2017-01-03T13:29:10.028Z,4.29
2017-01-03T13:30:09.935Z,4.35
2017-01-03T13:31:10.101Z,4.38